createdAt,value
2018-08-19T00:00:27.237Z,17.04
2018-08-19T00:01:27.320Z,16.98
2018-08-19T00:02:27.300Z,17.03
2018-08-19T00:03:27.520Z,17.03
2018-08-19T00:04:27.414Z,17.00
2018-08-19T00:05:27.452Z,17.03
2018-08-19T00:06:27.484Z,16.96
2018-08-19T00:07:27.543Z,16.95
2018-08-19T00:08:27.590Z,16.96
2018-08-19T00:09:27.618Z,16.93
2018-08-19T00:10:27.647Z,16.90
2018-08-19T00:11:27.687Z,17.00
2018-08-19T00:12:27.724Z,16.99
2018-08-19T00:13:27.894Z,17.06
2018-08-19T00:14:27.840Z,17.11
2018-08-19T00:15:27.871Z,17.07
2018-08-19T00:16:27.903Z,17.04
2018-08-19T00:17:27.950Z,17.04
2018-08-19T00:18:28.048Z,17.07
2018-08-19T00:19:28.051Z,17.11
2018-08-19T00:20:28.103Z,17.11
2018-08-19T00:21:28.114Z,17.18
2018-08-19T00:22:28.184Z,17.14
2018-08-19T00:23:28.378Z,17.10
2018-08-19T00:24:28.267Z,17.13
2018-08-19T00:25:28.315Z,17.10
2018-08-19T00:26:28.331Z,17.11
2018-08-19T00:27:28.377Z,17.08
2018-08-19T00:28:28.443Z,17.06
2018-08-19T00:29:28.478Z,17.04
2018-08-19T00:30:28.506Z,17.00
2018-08-19T00:31:28.562Z,16.99
2018-08-19T00:32:28.576Z,17.08
2018-08-19T00:33:28.729Z,17.00
2018-08-19T00:34:28.699Z,17.00
2018-08-19T00:35:28.724Z,16.96
2018-08-19T00:36:28.769Z,16.98
2018-08-19T00:37:28.848Z,16.96
2018-08-19T00:38:28.847Z,16.95
2018-08-19T00:39:28.918Z,16.96
2018-08-19T00:40:28.939Z,17.07
2018-08-19T00:41:28.969Z,17.08
2018-08-19T00:42:29.024Z,17.10
2018-08-19T00:43:29.047Z,17.08
2018-08-19T00:44:29.093Z,17.04
2018-08-19T00:45:29.157Z,17.03
2018-08-19T00:46:29.219Z,17.00
2018-08-19T00:47:29.248Z,17.00
2018-08-19T00:48:29.279Z,16.99
2018-08-19T00:49:29.337Z,17.00
2018-08-19T00:50:29.357Z,17.03
2018-08-19T00:51:29.423Z,16.99
2018-08-19T00:52:29.450Z,17.07
2018-08-19T00:53:29.635Z,17.03
2018-08-19T00:54:29.552Z,17.11
2018-08-19T00:55:29.602Z,17.04
2018-08-19T00:56:29.632Z,17.03
2018-08-19T00:57:29.689Z,16.98
2018-08-19T00:58:29.706Z,17.00
2018-08-19T00:59:29.921Z,17.03
2018-08-19T01:00:29.802Z,16.92
2018-08-19T01:01:29.871Z,16.95
2018-08-19T01:02:29.889Z,16.96
2018-08-19T01:03:29.918Z,17.03
2018-08-19T01:04:29.954Z,16.98
2018-08-19T01:05:30.018Z,16.93
2018-08-19T01:06:30.044Z,16.98
2018-08-19T01:07:30.090Z,17.00
2018-08-19T01:08:30.154Z,16.93
2018-08-19T01:09:30.193Z,16.90
2018-08-19T01:10:30.229Z,16.90
2018-08-19T01:11:30.276Z,16.99
2018-08-19T01:12:30.297Z,16.96
2018-08-19T01:13:30.360Z,17.00
2018-08-19T01:14:30.399Z,16.99
2018-08-19T01:15:30.572Z,17.00
2018-08-19T01:16:30.484Z,16.95
2018-08-19T01:17:30.516Z,16.88
2018-08-19T01:18:30.552Z,17.03
2018-08-19T01:19:30.649Z,16.93
2018-08-19T01:20:30.650Z,16.81
2018-08-19T01:21:30.853Z,16.88
2018-08-19T01:22:30.745Z,16.90
2018-08-19T01:23:30.780Z,16.86
2018-08-19T01:24:30.814Z,16.88
2018-08-19T01:25:30.867Z,16.90
2018-08-19T01:26:30.898Z,16.90
2018-08-19T01:27:31.088Z,16.96
2018-08-19T01:28:31.039Z,16.95
2018-08-19T01:29:31.022Z,16.95
2018-08-19T01:30:31.094Z,16.95
2018-08-19T01:31:31.140Z,16.90
2018-08-19T01:32:31.164Z,16.96
2018-08-19T01:33:31.208Z,16.90
2018-08-19T01:34:31.248Z,16.95
2018-08-19T01:35:31.290Z,16.90
2018-08-19T01:36:31.323Z,16.96
2018-08-19T01:37:31.555Z,16.96
2018-08-19T01:38:31.428Z,16.98
2018-08-19T01:39:31.464Z,16.98
2018-08-19T01:40:31.522Z,16.92
2018-08-19T01:41:31.542Z,16.90
2018-08-19T01:42:31.600Z,16.95
2018-08-19T01:43:31.628Z,16.90
2018-08-19T01:44:31.837Z,16.93
2018-08-19T01:45:31.725Z,16.95
2018-08-19T01:46:31.770Z,16.86
2018-08-19T01:47:31.812Z,16.93
2018-08-19T01:48:31.877Z,17.00
2018-08-19T01:49:31.875Z,16.99
2018-08-19T01:50:32.076Z,16.93
2018-08-19T01:51:31.974Z,16.93
2018-08-19T01:52:32.035Z,16.99
2018-08-19T01:53:32.091Z,17.00
2018-08-19T01:54:32.119Z,16.92
2018-08-19T01:55:32.163Z,16.85
2018-08-19T01:56:32.179Z,16.96
2018-08-19T01:57:32.240Z,16.80
2018-08-19T01:58:32.288Z,16.89
2018-08-19T01:59:32.309Z,16.90
2018-08-19T02:00:32.521Z,16.93
2018-08-19T02:01:32.419Z,16.88
2018-08-19T02:02:32.514Z,16.93
2018-08-19T02:03:32.591Z,16.80
2018-08-19T02:04:32.582Z,16.88
2018-08-19T02:05:32.618Z,16.88
2018-08-19T02:06:32.708Z,16.93
2018-08-19T02:07:32.898Z,16.88
2018-08-19T02:08:32.749Z,16.92
2018-08-19T02:09:32.848Z,17.00
2018-08-19T02:10:32.786Z,16.98
2018-08-19T02:11:32.887Z,16.93
2018-08-19T02:12:32.862Z,16.93
2018-08-19T02:13:33.134Z,16.95
2018-08-19T02:14:33.006Z,16.95
2018-08-19T02:15:33.045Z,16.95
2018-08-19T02:16:33.110Z,16.90
2018-08-19T02:17:33.095Z,16.95
2018-08-19T02:18:33.240Z,16.96
2018-08-19T02:19:33.470Z,16.90
2018-08-19T02:20:33.262Z,16.93
2018-08-19T02:21:33.304Z,16.98
2018-08-19T02:22:33.371Z,16.90
2018-08-19T02:23:33.406Z,16.96
2018-08-19T02:24:33.378Z,16.89
2018-08-19T02:25:33.501Z,16.93
2018-08-19T02:26:33.540Z,16.83
2018-08-19T02:27:33.543Z,16.99
2018-08-19T02:28:33.613Z,16.95
2018-08-19T02:29:33.822Z,16.86
2018-08-19T02:30:33.645Z,16.90
2018-08-19T02:31:33.703Z,16.89
2018-08-19T02:32:33.734Z,16.96
2018-08-19T02:33:33.829Z,16.96
2018-08-19T02:34:33.875Z,17.00
2018-08-19T02:35:33.954Z,17.10
2018-08-19T02:36:34.150Z,16.96
2018-08-19T02:37:34.006Z,16.99
2018-08-19T02:38:34.004Z,16.92
2018-08-19T02:39:34.041Z,16.93
2018-08-19T02:40:34.151Z,16.93
2018-08-19T02:41:34.220Z,16.90
2018-08-19T02:42:34.207Z,16.95
2018-08-19T02:43:34.269Z,16.89
2018-08-19T02:44:34.339Z,16.89
2018-08-19T02:45:34.293Z,16.95
2018-08-19T02:46:34.593Z,16.96
2018-08-19T02:47:34.443Z,16.93
2018-08-19T02:48:34.454Z,16.90
2018-08-19T02:49:34.461Z,16.89
2018-08-19T02:50:34.491Z,16.95
2018-08-19T02:51:34.552Z,16.93
2018-08-19T02:52:34.574Z,16.93
2018-08-19T02:53:34.716Z,16.86
2018-08-19T02:54:34.675Z,16.98
2018-08-19T02:55:34.730Z,16.85
2018-08-19T02:56:34.764Z,16.95
2018-08-19T02:57:34.793Z,16.95
2018-08-19T02:58:34.841Z,16.98
2018-08-19T02:59:35.011Z,16.96
2018-08-19T03:00:34.921Z,16.90
2018-08-19T03:01:34.955Z,16.89
2018-08-19T03:02:35.019Z,16.98
2018-08-19T03:03:35.038Z,16.89
2018-08-19T03:04:35.082Z,16.85
2018-08-19T03:05:35.177Z,16.96
2018-08-19T03:06:35.194Z,16.85
2018-08-19T03:09:35.300Z,16.95
2018-08-19T03:10:35.450Z,16.89
2018-08-19T03:11:35.408Z,16.95
2018-08-19T03:12:35.438Z,16.92
2018-08-19T03:13:35.464Z,16.78
2018-08-19T03:14:35.532Z,16.89
2018-08-19T03:15:35.566Z,16.78
2018-08-19T03:16:35.597Z,16.80
2018-08-19T03:17:35.648Z,16.88
2018-08-19T03:18:35.673Z,16.89
2018-08-19T03:19:35.748Z,16.80
2018-08-19T03:20:35.765Z,16.85
2018-08-19T03:21:36.005Z,16.71
2018-08-19T03:22:35.862Z,16.80
2018-08-19T03:23:35.924Z,16.81
2018-08-19T03:24:35.933Z,16.80
2018-08-19T03:25:36.000Z,16.81
2018-08-19T03:26:36.034Z,16.75
2018-08-19T03:27:36.089Z,16.81
2018-08-19T03:28:36.116Z,16.80
2018-08-19T03:29:36.172Z,16.83
2018-08-19T03:30:36.241Z,16.77
2018-08-19T03:31:36.245Z,16.83
2018-08-19T03:32:36.379Z,16.78
2018-08-19T03:33:36.358Z,16.86
2018-08-19T03:34:36.356Z,16.73
2018-08-19T03:35:36.400Z,16.83
2018-08-19T03:36:36.461Z,16.81
2018-08-19T03:37:36.506Z,16.78
2018-08-19T03:39:36.579Z,16.81
2018-08-19T03:40:36.634Z,16.78
2018-08-19T03:41:36.681Z,16.74
2018-08-19T03:43:36.772Z,16.78
2018-08-19T03:44:36.798Z,16.80
2018-08-19T03:45:36.830Z,16.77
2018-08-19T03:46:36.884Z,16.86
2018-08-19T03:47:36.958Z,16.85
2018-08-19T03:48:36.972Z,16.77
2018-08-19T03:50:37.068Z,16.78
2018-08-19T03:52:37.129Z,16.70
2018-08-19T03:53:37.345Z,16.68
2018-08-19T03:54:37.239Z,16.77
2018-08-19T03:55:37.313Z,16.77
2018-08-19T03:56:37.294Z,16.78
2018-08-19T03:57:37.365Z,16.77
2018-08-19T03:58:37.412Z,16.83
2018-08-19T03:59:37.433Z,16.88
2018-08-19T04:00:39.027Z,16.85
2018-08-19T04:05:37.682Z,16.90
2018-08-19T04:07:37.935Z,16.80
2018-08-19T04:08:37.843Z,16.85
2018-08-19T04:09:37.911Z,16.83
2018-08-19T04:10:37.913Z,16.83
2018-08-19T04:11:37.952Z,16.88
2018-08-19T04:12:38.084Z,16.80
2018-08-19T04:13:38.043Z,16.83
2018-08-19T04:14:38.123Z,16.81
2018-08-19T04:15:38.136Z,16.62
2018-08-19T04:16:38.165Z,16.65
2018-08-19T04:17:39.934Z,16.67
2018-08-19T04:18:38.452Z,16.62
2018-08-19T04:19:38.330Z,16.56
2018-08-19T04:20:38.331Z,16.59
2018-08-19T04:21:38.374Z,16.59
2018-08-19T04:22:38.430Z,16.60
2018-08-19T04:23:38.725Z,16.60
2018-08-19T04:24:38.491Z,16.63
2018-08-19T04:27:38.639Z,16.60
2018-08-19T04:28:38.671Z,16.59
2018-08-19T04:29:38.723Z,16.53
2018-08-19T04:30:38.763Z,16.62
2018-08-19T04:32:38.852Z,16.67
2018-08-19T04:33:39.034Z,16.52
2018-08-19T04:34:38.928Z,16.53
2018-08-19T04:35:38.961Z,16.50
2018-08-19T04:37:39.056Z,16.50
2018-08-19T04:38:39.178Z,16.52
2018-08-19T04:39:39.137Z,16.41
2018-08-19T04:40:39.175Z,16.49
2018-08-19T04:41:39.235Z,16.34
2018-08-19T04:42:39.269Z,16.37
2018-08-19T04:43:39.306Z,16.31
2018-08-19T04:45:39.392Z,16.34
2018-08-19T04:46:39.434Z,16.38
2018-08-19T04:48:39.525Z,16.33
2018-08-19T04:49:39.546Z,16.45
2018-08-19T04:50:41.259Z,16.41
2018-08-19T04:51:39.646Z,16.41
2018-08-19T04:52:39.691Z,16.40
2018-08-19T04:53:39.703Z,16.45
2018-08-19T04:54:39.766Z,16.40
2018-08-19T04:55:39.812Z,16.37
2018-08-19T04:56:39.852Z,16.41
2018-08-19T04:57:39.896Z,16.42
2018-08-19T04:58:39.922Z,16.42
2018-08-19T04:59:39.966Z,16.48
2018-08-19T05:00:40.058Z,16.50
2018-08-19T05:01:40.308Z,16.38
2018-08-19T05:02:40.188Z,16.41
2018-08-19T05:03:40.149Z,16.38
2018-08-19T05:04:40.192Z,16.34
2018-08-19T05:05:40.218Z,16.42
2018-08-19T05:06:40.277Z,16.37
2018-08-19T05:07:40.311Z,16.34
2018-08-19T05:08:40.339Z,16.42
2018-08-19T05:09:40.379Z,16.42
2018-08-19T05:10:40.434Z,16.37
2018-08-19T05:11:40.538Z,16.41
2018-08-19T05:12:40.525Z,16.37
2018-08-19T05:13:40.700Z,16.34
2018-08-19T05:14:40.609Z,16.35
2018-08-19T05:15:40.660Z,16.22
2018-08-19T05:16:40.677Z,16.33
2018-08-19T05:17:40.730Z,16.34
2018-08-19T05:18:40.784Z,16.27
2018-08-19T05:19:40.803Z,16.31
2018-08-19T05:20:40.865Z,16.37
2018-08-19T05:21:40.880Z,16.22
2018-08-19T05:22:41.015Z,16.25
2018-08-19T05:23:40.970Z,16.25
2018-08-19T05:24:41.213Z,16.25
2018-08-19T05:25:41.219Z,16.26
2018-08-19T05:27:41.125Z,16.25
2018-08-19T05:28:41.187Z,16.23
2018-08-19T05:29:41.227Z,16.33
2018-08-19T05:30:41.276Z,16.26
2018-08-19T05:31:41.382Z,16.27
2018-08-19T05:33:41.441Z,16.33
2018-08-19T05:34:41.449Z,16.33
2018-08-19T05:35:41.532Z,16.35
2018-08-19T05:36:41.529Z,16.25
2018-08-19T05:37:41.558Z,16.31
2018-08-19T05:38:41.652Z,16.33
2018-08-19T05:41:41.729Z,16.25
2018-08-19T05:42:41.987Z,16.25
2018-08-19T05:43:41.822Z,16.23
2018-08-19T05:44:41.869Z,16.25
2018-08-19T05:45:41.903Z,16.23
2018-08-19T05:46:42.039Z,16.23
2018-08-19T05:47:43.537Z,16.30
2018-08-19T05:48:42.135Z,16.27
2018-08-19T05:49:42.055Z,16.27
2018-08-19T05:52:42.201Z,16.27
2018-08-19T05:53:42.392Z,16.31
2018-08-19T05:54:42.280Z,16.22
2018-08-19T05:55:42.473Z,16.30
2018-08-19T05:56:42.370Z,16.31
2018-08-19T05:57:42.416Z,16.27
2018-08-19T05:58:42.457Z,16.30
2018-08-19T05:59:44.036Z,16.23
2018-08-19T06:00:42.515Z,16.31
2018-08-19T06:01:42.548Z,16.25
2018-08-19T06:03:42.640Z,16.11
2018-08-19T06:04:42.738Z,16.16
2018-08-19T06:05:42.774Z,16.18
2018-08-19T06:06:42.769Z,16.14
2018-08-19T06:07:42.993Z,16.15
2018-08-19T06:08:42.855Z,16.14
2018-08-19T06:09:42.907Z,16.18
2018-08-19T06:10:44.488Z,16.09
2018-08-19T06:11:42.986Z,16.07
2018-08-19T06:12:43.030Z,16.07
2018-08-19T06:13:43.078Z,16.06
2018-08-19T06:14:43.119Z,16.04
2018-08-19T06:15:43.159Z,16.04
2018-08-19T06:16:43.286Z,16.09
2018-08-19T06:17:43.240Z,16.01
2018-08-19T06:18:43.325Z,16.01
2018-08-19T06:19:43.314Z,16.12
2018-08-19T06:21:43.463Z,16.09
2018-08-19T06:22:44.937Z,16.09
2018-08-19T06:24:43.585Z,15.99
2018-08-19T06:26:43.666Z,16.09
2018-08-19T06:27:43.656Z,16.04
2018-08-19T06:28:43.701Z,16.11
2018-08-19T06:29:43.722Z,16.04
2018-08-19T06:30:43.764Z,16.06
2018-08-19T06:31:43.820Z,15.96
2018-08-19T06:32:43.858Z,16.01
2018-08-19T06:33:43.921Z,16.06
2018-08-19T06:35:44.188Z,16.12
2018-08-19T06:36:44.026Z,15.99
2018-08-19T06:38:44.109Z,16.03
2018-08-19T06:39:44.161Z,15.97
2018-08-19T06:40:45.712Z,16.06
2018-08-19T06:41:44.247Z,15.94
2018-08-19T06:42:44.260Z,16.01
2018-08-19T06:43:44.322Z,16.00
2018-08-19T06:44:44.393Z,15.96
2018-08-19T06:46:45.942Z,16.01
2018-08-19T06:47:44.511Z,15.93
2018-08-19T06:48:44.527Z,15.99
2018-08-19T06:49:44.581Z,15.93
2018-08-19T06:51:44.665Z,15.92
2018-08-19T06:53:44.895Z,15.94
2018-08-19T06:54:44.786Z,15.92
2018-08-19T06:55:44.865Z,15.85
2018-08-19T06:58:45.044Z,15.81
2018-08-19T06:59:44.989Z,15.86
2018-08-19T07:00:45.014Z,15.85
2018-08-19T07:02:45.123Z,15.84
2018-08-19T07:04:45.208Z,15.84
2018-08-19T07:05:45.233Z,15.88
2018-08-19T07:06:45.270Z,15.82
2018-08-19T07:07:45.299Z,15.88
2018-08-19T07:08:45.396Z,15.85
2018-08-19T07:09:45.559Z,15.86
2018-08-19T07:10:45.609Z,15.92
2018-08-19T07:11:45.500Z,15.78
2018-08-19T07:12:45.622Z,15.82
2018-08-19T07:13:45.615Z,15.76
2018-08-19T07:14:45.666Z,15.70
2018-08-19T07:15:45.713Z,15.82
2018-08-19T07:17:45.796Z,15.64
2018-08-19T07:18:46.000Z,15.74
2018-08-19T07:19:45.880Z,15.76
2018-08-19T07:20:47.681Z,15.63
2018-08-19T07:21:45.978Z,15.66
2018-08-19T07:22:45.982Z,15.67
2018-08-19T07:24:46.072Z,15.75
2018-08-19T07:25:46.060Z,15.78
2018-08-19T07:26:46.268Z,15.64
2018-08-19T07:27:46.303Z,15.70
2018-08-19T07:28:46.195Z,15.78
2018-08-19T07:29:46.391Z,15.64
2018-08-19T07:30:46.273Z,15.64
2018-08-19T07:33:46.556Z,15.52
2018-08-19T07:35:46.485Z,15.57
2018-08-19T07:36:46.593Z,15.57
2018-08-19T07:38:48.122Z,15.56
2018-08-19T07:39:46.637Z,15.56
2018-08-19T07:42:46.767Z,15.56
2018-08-19T07:43:46.822Z,15.49
2018-08-19T07:44:46.838Z,15.56
2018-08-19T07:45:46.900Z,15.51
2018-08-19T07:46:46.931Z,15.51
2018-08-19T07:48:47.023Z,15.45
2018-08-19T07:50:47.101Z,15.54
2018-08-19T07:51:47.122Z,15.54
2018-08-19T07:52:47.191Z,15.49
2018-08-19T07:53:47.227Z,15.59
2018-08-19T07:54:47.255Z,15.56
2018-08-19T07:55:47.434Z,15.52
2018-08-19T07:56:47.370Z,15.45
2018-08-19T07:57:47.374Z,15.45
2018-08-19T07:58:47.422Z,15.45
2018-08-19T07:59:47.472Z,15.41
2018-08-19T08:00:47.537Z,15.36
2018-08-19T08:01:47.602Z,15.38
2018-08-19T08:02:47.614Z,15.33
2018-08-19T08:03:47.701Z,15.27
2018-08-19T08:04:47.710Z,15.28
2018-08-19T08:05:47.870Z,15.33
2018-08-19T08:06:48.045Z,15.41
2018-08-19T08:08:47.881Z,15.33
2018-08-19T08:09:47.851Z,15.33
2018-08-19T08:10:48.005Z,15.31
2018-08-19T08:13:48.156Z,15.35
2018-08-19T08:14:48.102Z,15.38
2018-08-19T08:15:48.121Z,15.46
2018-08-19T08:16:48.216Z,15.41
2018-08-19T08:17:48.272Z,15.41
2018-08-19T08:19:49.949Z,15.46
2018-08-19T08:22:48.469Z,15.43
2018-08-19T08:23:48.455Z,15.38
2018-08-19T08:24:48.485Z,15.38
2018-08-19T08:25:48.524Z,15.38
2018-08-19T08:27:48.613Z,15.41
2018-08-19T08:28:48.656Z,15.38
2018-08-19T08:31:48.778Z,15.36
2018-08-19T08:32:48.981Z,15.35
2018-08-19T08:34:48.889Z,15.35
2018-08-19T08:35:48.974Z,15.33
2018-08-19T08:36:48.978Z,15.33
2018-08-19T08:38:49.203Z,15.30
2018-08-19T08:39:49.108Z,15.38
2018-08-19T08:40:49.134Z,15.35
2018-08-19T08:41:49.194Z,15.24
2018-08-19T08:42:49.236Z,15.26
2018-08-19T08:43:49.260Z,15.24
2018-08-19T08:44:49.372Z,15.24
2018-08-19T08:45:49.386Z,15.24
2018-08-19T08:46:49.414Z,15.33
2018-08-19T08:47:49.425Z,15.31
2018-08-19T08:49:49.530Z,15.30
2018-08-19T08:50:49.534Z,15.27
2018-08-19T08:51:49.606Z,15.27
2018-08-19T08:52:49.653Z,15.27
2018-08-19T08:53:49.674Z,15.28
2018-08-19T08:54:49.706Z,15.27
2018-08-19T08:56:49.804Z,15.21
2018-08-19T08:57:49.883Z,15.17
2018-08-19T08:58:49.919Z,15.17
2018-08-19T08:59:49.958Z,15.15
2018-08-19T09:01:51.665Z,15.03
2018-08-19T09:02:50.034Z,15.05
2018-08-19T09:03:50.099Z,15.06
2018-08-19T09:04:50.135Z,15.06
2018-08-19T09:06:50.257Z,15.11
2018-08-19T09:07:50.396Z,15.02
2018-08-19T09:08:50.281Z,15.03
2018-08-19T09:10:50.378Z,15.03
2018-08-19T09:11:50.418Z,14.99
2018-08-19T09:12:50.440Z,15.08
2018-08-19T09:13:50.558Z,14.99
2018-08-19T09:14:50.527Z,15.01
2018-08-19T09:15:50.613Z,15.06
2018-08-19T09:16:50.608Z,15.05
2018-08-19T09:17:50.657Z,15.06
2018-08-19T09:18:50.720Z,15.13
2018-08-19T09:20:50.768Z,15.06
2018-08-19T09:21:50.809Z,15.05
2018-08-19T09:22:50.950Z,15.02
2018-08-19T09:24:50.944Z,15.03
2018-08-19T09:25:50.997Z,15.03
2018-08-19T09:26:51.026Z,15.03
2018-08-19T09:27:51.064Z,15.06
2018-08-19T09:28:51.147Z,14.94
2018-08-19T09:30:51.225Z,15.06
2018-08-19T09:31:51.231Z,15.02
2018-08-19T09:32:51.327Z,15.01
2018-08-19T09:33:51.342Z,15.02
2018-08-19T09:34:51.527Z,15.01
2018-08-19T09:35:51.391Z,15.06
2018-08-19T09:36:51.429Z,15.01
2018-08-19T09:37:51.444Z,15.05
2018-08-19T09:38:51.510Z,15.03
2018-08-19T09:39:53.143Z,15.02
2018-08-19T09:40:51.727Z,15.20
2018-08-19T09:41:51.637Z,15.15
2018-08-19T09:43:51.721Z,15.13
2018-08-19T09:44:51.733Z,15.12
2018-08-19T09:45:51.932Z,15.20
2018-08-19T09:46:51.881Z,15.19
2018-08-19T09:47:51.969Z,15.11
2018-08-19T09:48:51.910Z,15.12
2018-08-19T09:49:51.950Z,15.17
2018-08-19T09:51:52.040Z,15.27
2018-08-19T09:52:52.184Z,15.23
2018-08-19T09:54:52.228Z,15.24
2018-08-19T09:56:52.230Z,15.13
2018-08-19T09:57:52.297Z,15.30
2018-08-19T09:58:52.334Z,15.28
2018-08-19T09:59:52.356Z,15.23
2018-08-19T10:00:52.416Z,15.26
2018-08-19T10:02:52.635Z,15.35
2018-08-19T10:03:52.541Z,15.38
2018-08-19T10:05:52.617Z,15.38
2018-08-19T10:07:52.791Z,15.36
2018-08-19T10:08:52.753Z,15.41
2018-08-19T10:09:52.761Z,15.42
2018-08-19T10:10:52.819Z,15.46
2018-08-19T10:11:52.906Z,15.46
2018-08-19T10:12:52.913Z,15.51
2018-08-19T10:13:52.924Z,15.45
2018-08-19T10:14:53.003Z,15.54
2018-08-19T10:16:53.081Z,15.51
2018-08-19T10:17:54.615Z,15.54
2018-08-19T10:18:53.331Z,15.59
2018-08-19T10:19:53.197Z,15.52
2018-08-19T10:20:53.228Z,15.51
2018-08-19T10:22:53.321Z,15.54
2018-08-19T10:24:54.906Z,15.59
2018-08-19T10:25:53.442Z,15.64
2018-08-19T10:26:53.476Z,15.51
2018-08-19T10:27:53.571Z,15.64
2018-08-19T10:28:53.569Z,15.70
2018-08-19T10:30:53.640Z,15.75
2018-08-19T10:31:53.762Z,15.66
2018-08-19T10:32:53.767Z,15.67
2018-08-19T10:33:53.777Z,15.68
2018-08-19T10:35:54.045Z,15.67
2018-08-19T10:36:53.902Z,15.76
2018-08-19T10:37:53.947Z,15.74
2018-08-19T10:38:54.009Z,15.81
2018-08-19T10:40:54.634Z,15.82
2018-08-19T10:41:55.732Z,15.82
2018-08-19T10:42:55.670Z,15.85
2018-08-19T10:43:54.184Z,15.92
2018-08-19T10:45:54.314Z,16.06
2018-08-19T10:46:54.355Z,16.14
2018-08-19T10:47:54.364Z,16.37
2018-08-19T10:48:54.399Z,16.42
2018-08-19T10:49:54.594Z,16.67
2018-08-19T10:51:54.516Z,16.77
2018-08-19T10:52:54.611Z,16.89
2018-08-19T10:53:54.597Z,16.88
2018-08-19T10:54:54.628Z,16.81
2018-08-19T10:56:54.797Z,16.83
2018-08-19T10:57:54.769Z,17.06
2018-08-19T10:58:54.813Z,17.32
2018-08-19T10:59:54.912Z,17.74
2018-08-19T11:00:54.915Z,18.13
2018-08-19T11:03:55.030Z,18.44
2018-08-19T11:04:55.123Z,18.29
2018-08-19T11:06:55.172Z,18.00
2018-08-19T11:08:55.259Z,17.79
2018-08-19T11:09:55.299Z,17.91
2018-08-19T11:10:55.352Z,18.31
2018-08-19T11:11:55.398Z,18.74
2018-08-19T11:12:55.474Z,19.17
2018-08-19T11:13:55.493Z,19.32
2018-08-19T11:14:55.524Z,19.33
2018-08-19T11:15:55.571Z,19.39
2018-08-19T11:16:55.796Z,19.83
2018-08-19T11:17:55.659Z,19.90
2018-08-19T11:18:55.724Z,19.72
2018-08-19T11:19:55.760Z,19.33
2018-08-19T11:20:55.802Z,18.98
2018-08-19T11:21:55.851Z,18.95
2018-08-19T11:22:55.893Z,19.05
2018-08-19T11:23:55.951Z,19.39
2018-08-19T11:24:55.969Z,19.66
2018-08-19T11:26:56.054Z,19.58
2018-08-19T11:28:56.328Z,19.38
2018-08-19T11:29:56.217Z,19.17
2018-08-19T11:31:56.286Z,18.55
2018-08-19T11:32:56.337Z,18.21
2018-08-19T11:33:56.615Z,18.09
2018-08-19T11:34:56.455Z,18.13
2018-08-19T11:35:56.488Z,18.09
2018-08-19T11:36:56.553Z,18.18
2018-08-19T11:37:56.564Z,18.31
2018-08-19T11:38:56.632Z,18.55
2018-08-19T11:39:56.676Z,18.92
2018-08-19T11:40:56.709Z,19.58
2018-08-19T11:41:56.774Z,20.28
2018-08-19T11:43:56.870Z,20.95
2018-08-19T11:44:56.956Z,21.27
2018-08-19T11:45:56.954Z,21.56
2018-08-19T11:46:56.985Z,21.98
2018-08-19T11:47:57.031Z,22.59
2018-08-19T11:48:57.133Z,22.92
2018-08-19T11:50:57.196Z,23.55
2018-08-19T11:51:57.206Z,23.97
2018-08-19T11:52:57.279Z,24.12
2018-08-19T11:53:57.304Z,23.86
2018-08-19T11:54:57.377Z,23.79
2018-08-19T11:55:57.454Z,23.68
2018-08-19T11:58:57.679Z,24.91
2018-08-19T11:59:57.608Z,25.46
2018-08-19T12:00:57.685Z,25.77
2018-08-19T12:01:57.753Z,25.49
2018-08-19T12:02:57.773Z,25.10
2018-08-19T12:03:57.813Z,24.80
2018-08-19T12:04:57.874Z,24.88
2018-08-19T12:05:57.919Z,25.17
2018-08-19T12:06:57.981Z,24.95
2018-08-19T12:08:58.073Z,25.16
2018-08-19T12:09:58.109Z,24.98
2018-08-19T12:10:58.218Z,25.06
2018-08-19T12:12:58.283Z,24.69
2018-08-19T12:13:58.339Z,24.71
2018-08-19T12:14:58.487Z,24.63
2018-08-19T12:15:58.452Z,24.60
2018-08-19T12:16:58.510Z,24.80
2018-08-19T12:18:58.579Z,25.09
2018-08-19T12:19:58.656Z,25.24
2018-08-19T12:23:58.863Z,25.46
2018-08-19T12:24:58.916Z,25.47
2018-08-19T12:25:58.952Z,25.87
2018-08-19T12:27:00.733Z,25.99
2018-08-19T12:27:59.102Z,26.58
2018-08-19T12:28:59.123Z,26.96
2018-08-19T12:29:59.153Z,27.38
2018-08-19T12:30:59.213Z,27.24
2018-08-19T12:31:59.264Z,27.17
2018-08-19T12:33:00.836Z,26.86
2018-08-19T12:33:59.427Z,26.47
2018-08-19T12:34:59.439Z,26.32
2018-08-19T12:35:59.494Z,26.46
2018-08-19T12:36:59.595Z,26.49
2018-08-19T12:37:59.587Z,26.81
2018-08-19T12:38:59.642Z,26.98
2018-08-19T12:39:59.711Z,26.86
2018-08-19T12:40:59.744Z,26.65
2018-08-19T12:41:59.789Z,26.42
2018-08-19T12:43:59.896Z,25.65
2018-08-19T12:44:59.968Z,24.97
2018-08-19T12:46:00.024Z,24.83
2018-08-19T12:47:00.059Z,24.98
2018-08-19T12:48:00.118Z,25.57
2018-08-19T12:49:00.210Z,26.05
2018-08-19T12:50:00.262Z,26.04
2018-08-19T12:51:00.484Z,26.27
2018-08-19T12:52:00.350Z,26.18
2018-08-19T12:53:00.381Z,25.98
2018-08-19T12:55:00.481Z,26.25
2018-08-19T12:56:00.549Z,26.39
2018-08-19T12:57:00.624Z,26.67
2018-08-19T12:58:00.657Z,27.14
2018-08-19T12:59:00.753Z,27.26
2018-08-19T13:02:00.889Z,27.50
2018-08-19T13:03:00.919Z,27.16
2018-08-19T13:04:00.977Z,27.02
2018-08-19T13:06:01.142Z,26.73
2018-08-19T13:08:01.211Z,27.23
2018-08-19T13:09:01.277Z,27.19
2018-08-19T13:10:01.351Z,26.80
2018-08-19T13:11:01.372Z,26.91
2018-08-19T13:12:01.404Z,27.23
2018-08-19T13:13:01.494Z,27.01
2018-08-19T13:14:01.723Z,26.74
2018-08-19T13:15:03.298Z,26.42
2018-08-19T13:16:01.633Z,26.37
2018-08-19T13:18:01.743Z,26.55
2018-08-19T13:19:03.857Z,27.04
2018-08-19T13:20:01.868Z,27.35
2018-08-19T13:21:02.061Z,27.95
2018-08-19T13:22:03.527Z,27.57
2018-08-19T13:23:02.065Z,27.33
2018-08-19T13:24:02.076Z,27.82
2018-08-19T13:27:02.245Z,27.85
2018-08-19T13:28:02.301Z,27.66
2018-08-19T13:29:02.362Z,27.51
2018-08-19T13:31:02.472Z,27.69
2018-08-19T13:32:02.535Z,28.16
2018-08-19T13:34:02.626Z,29.22
2018-08-19T13:35:02.669Z,29.13
2018-08-19T13:37:02.789Z,29.18
2018-08-19T13:40:02.945Z,29.26
2018-08-19T13:41:03.053Z,29.26
2018-08-19T13:42:03.096Z,28.90
2018-08-19T13:44:03.347Z,28.01
2018-08-19T13:45:03.234Z,28.38
2018-08-19T13:46:03.290Z,28.58
2018-08-19T13:47:03.381Z,28.73
2018-08-19T13:48:03.434Z,28.73
2018-08-19T13:49:03.485Z,28.36
2018-08-19T13:51:03.717Z,28.07
2018-08-19T13:52:03.640Z,28.36
2018-08-19T13:54:03.765Z,28.32
2018-08-19T13:55:03.816Z,28.72
2018-08-19T13:56:03.866Z,29.16
2018-08-19T13:58:03.981Z,29.28
2018-08-19T13:59:04.027Z,29.34
2018-08-19T14:00:04.104Z,29.40
2018-08-19T14:01:04.167Z,29.26
2018-08-19T14:02:04.209Z,28.93
2018-08-19T14:03:05.766Z,28.95
2018-08-19T14:04:04.336Z,29.20
2018-08-19T14:05:04.379Z,29.06
2018-08-19T14:06:04.450Z,28.91
2018-08-19T14:08:04.558Z,28.36
2018-08-19T14:09:04.754Z,28.36
2018-08-19T14:10:04.676Z,28.25
2018-08-19T14:11:04.732Z,28.59
2018-08-19T14:12:04.842Z,28.38
2018-08-19T14:13:04.857Z,28.54
2018-08-19T14:14:04.905Z,28.78
2018-08-19T14:16:05.132Z,29.08
2018-08-19T14:17:05.050Z,29.26
2018-08-19T14:18:05.153Z,29.25
2018-08-19T14:19:05.199Z,29.57
2018-08-19T14:20:05.243Z,29.68
2018-08-19T14:21:05.328Z,29.34
2018-08-19T14:23:05.421Z,29.23
2018-08-19T14:24:05.474Z,29.43
2018-08-19T14:26:05.584Z,29.45
2018-08-19T14:27:05.658Z,29.49
2018-08-19T14:29:05.758Z,29.87
2018-08-19T14:30:05.960Z,29.86
2018-08-19T14:32:05.932Z,29.29
2018-08-19T14:33:06.002Z,29.33
2018-08-19T14:34:06.099Z,29.29
2018-08-19T14:35:06.127Z,29.38
2018-08-19T14:36:06.172Z,29.68
2018-08-19T14:37:06.245Z,29.62
2018-08-19T14:38:06.273Z,29.60
2018-08-19T14:39:06.349Z,29.74
2018-08-19T14:40:06.620Z,29.90
2018-08-19T14:41:06.455Z,30.09
2018-08-19T14:42:06.552Z,30.12
2018-08-19T14:43:06.620Z,29.79
2018-08-19T14:45:06.701Z,29.90
2018-08-19T14:46:06.808Z,30.02
2018-08-19T14:48:06.864Z,30.09
2018-08-19T14:49:06.980Z,29.82
2018-08-19T14:50:06.985Z,29.44
2018-08-19T14:51:07.033Z,29.49
2018-08-19T14:52:07.156Z,29.40
2018-08-19T14:53:07.145Z,29.34
2018-08-19T14:54:07.220Z,29.23
2018-08-19T14:55:07.259Z,29.22
2018-08-19T14:56:07.345Z,29.29
2018-08-19T14:58:09.103Z,29.86